sensor_id;sensor_type;location;lat;lon;timestamp;P1;durP1;ratioP1;P2;durP2;ratioP2
8439;SDS011;4257;48.568;7.818;2023-08-17T00:01:29;1.08;;;0.75;;
8439;SDS011;4257;48.568;7.818;2023-08-17T00:03:55;3.25;;;2.30;;
8439;SDS011;4257;48.568;7.818;2023-08-17T00:06:22;1.15;;;0.70;;
8439;SDS011;4257;48.568;7.818;2023-08-17T00:08:48;3.00;;;0.90;;
8439;SDS011;4257;48.568;7.818;2023-08-17T00:11:15;6.85;;;1.70;;
8439;SDS011;4257;48.568;7.818;2023-08-17T00:13:41;0.57;;;0.45;;
8439;SDS011;4257;48.568;7.818;2023-08-17T00:16:07;1.52;;;0.90;;
8439;SDS011;4257;48.568;7.818;2023-08-17T00:18:35;0.85;;;0.80;;
8439;SDS011;4257;48.568;7.818;2023-08-17T00:21:02;2.47;;;0.73;;
8439;SDS011;4257;48.568;7.818;2023-08-17T00:23:28;0.70;;;0.38;;
8439;SDS011;4257;48.568;7.818;2023-08-17T00:25:55;0.70;;;0.50;;
8439;SDS011;4257;48.568;7.818;2023-08-17T00:28:21;1.08;;;0.60;;
8439;SDS011;4257;48.568;7.818;2023-08-17T00:30:48;1.40;;;0.70;;
8439;SDS011;4257;48.568;7.818;2023-08-17T00:33:14;2.10;;;0.77;;
8439;SDS011;4257;48.568;7.818;2023-08-17T00:35:42;0.80;;;0.35;;
8439;SDS011;4257;48.568;7.818;2023-08-17T00:38:10;0.82;;;0.65;;
8439;SDS011;4257;48.568;7.818;2023-08-17T00:40:37;1.60;;;0.43;;
8439;SDS011;4257;48.568;7.818;2023-08-17T00:43:04;1.15;;;0.40;;
8439;SDS011;4257;48.568;7.818;2023-08-17T00:45:31;1.15;;;0.70;;
8439;SDS011;4257;48.568;7.818;2023-08-17T00:47:57;2.38;;;0.65;;
8439;SDS011;4257;48.568;7.818;2023-08-17T00:50:24;0.30;;;0.30;;
8439;SDS011;4257;48.568;7.818;2023-08-17T00:52:53;0.80;;;0.50;;
8439;SDS011;4257;48.568;7.818;2023-08-17T00:55:20;0.70;;;0.70;;
8439;SDS011;4257;48.568;7.818;2023-08-17T00:57:46;0.30;;;0.20;;
8439;SDS011;4257;48.568;7.818;2023-08-17T01:00:13;0.80;;;0.63;;
8439;SDS011;4257;48.568;7.818;2023-08-17T01:02:40;0.77;;;0.43;;
8439;SDS011;4257;48.568;7.818;2023-08-17T01:05:07;0.50;;;0.40;;
8439;SDS011;4257;48.568;7.818;2023-08-17T01:07:34;1.80;;;0.68;;
8439;SDS011;4257;48.568;7.818;2023-08-17T01:10:04;0.88;;;0.40;;
8439;SDS011;4257;48.568;7.818;2023-08-17T01:12:32;1.92;;;0.50;;
8439;SDS011;4257;48.568;7.818;2023-08-17T01:15:00;0.73;;;0.57;;
8439;SDS011;4257;48.568;7.818;2023-08-17T01:17:31;1.13;;;0.50;;
8439;SDS011;4257;48.568;7.818;2023-08-17T01:19:59;0.95;;;0.40;;
8439;SDS011;4257;48.568;7.818;2023-08-17T01:22:28;1.13;;;0.50;;
8439;SDS011;4257;48.568;7.818;2023-08-17T01:24:59;0.40;;;0.40;;
8439;SDS011;4257;48.568;7.818;2023-08-17T01:27:29;3.25;;;1.40;;
8439;SDS011;4257;48.568;7.818;2023-08-17T01:30:02;3.80;;;0.40;;
8439;SDS011;4257;48.568;7.818;2023-08-17T01:32:32;0.63;;;0.35;;
8439;SDS011;4257;48.568;7.818;2023-08-17T01:35:01;0.95;;;0.68;;
8439;SDS011;4257;48.568;7.818;2023-08-17T01:37:31;0.35;;;0.22;;
8439;SDS011;4257;48.568;7.818;2023-08-17T01:40:01;1.92;;;0.50;;
8439;SDS011;4257;48.568;7.818;2023-08-17T01:42:29;1.25;;;0.55;;
8439;SDS011;4257;48.568;7.818;2023-08-17T01:44:57;1.75;;;0.30;;
8439;SDS011;4257;48.568;7.818;2023-08-17T01:47:24;0.77;;;0.55;;
8439;SDS011;4257;48.568;7.818;2023-08-17T01:49:50;0.65;;;0.50;;
8439;SDS011;4257;48.568;7.818;2023-08-17T01:52:16;0.60;;;0.40;;
8439;SDS011;4257;48.568;7.818;2023-08-17T01:54:43;0.50;;;0.38;;
8439;SDS011;4257;48.568;7.818;2023-08-17T01:57:11;1.05;;;0.60;;
8439;SDS011;4257;48.568;7.818;2023-08-17T01:59:38;0.60;;;0.38;;
8439;SDS011;4257;48.568;7.818;2023-08-17T02:02:04;0.65;;;0.60;;
8439;SDS011;4257;48.568;7.818;2023-08-17T02:04:31;0.55;;;0.32;;
8439;SDS011;4257;48.568;7.818;2023-08-17T02:06:57;1.20;;;0.57;;
8439;SDS011;4257;48.568;7.818;2023-08-17T02:09:23;0.73;;;0.60;;
8439;SDS011;4257;48.568;7.818;2023-08-17T02:11:50;2.10;;;0.60;;
8439;SDS011;4257;48.568;7.818;2023-08-17T02:14:18;0.50;;;0.40;;
8439;SDS011;4257;48.568;7.818;2023-08-17T02:16:44;1.55;;;0.45;;
8439;SDS011;4257;48.568;7.818;2023-08-17T02:19:11;3.53;;;0.77;;
8439;SDS011;4257;48.568;7.818;2023-08-17T02:21:38;0.70;;;0.60;;
8439;SDS011;4257;48.568;7.818;2023-08-17T02:24:06;0.65;;;0.38;;
8439;SDS011;4257;48.568;7.818;2023-08-17T02:26:32;1.10;;;0.50;;
8439;SDS011;4257;48.568;7.818;2023-08-17T02:28:59;0.80;;;0.50;;
8439;SDS011;4257;48.568;7.818;2023-08-17T02:31:27;1.00;;;0.50;;
8439;SDS011;4257;48.568;7.818;2023-08-17T02:33:53;1.70;;;0.65;;
8439;SDS011;4257;48.568;7.818;2023-08-17T02:36:23;1.02;;;0.70;;
8439;SDS011;4257;48.568;7.818;2023-08-17T02:38:49;0.98;;;0.60;;
8439;SDS011;4257;48.568;7.818;2023-08-17T02:41:17;2.58;;;0.93;;
8439;SDS011;4257;48.568;7.818;2023-08-17T02:43:43;0.90;;;0.80;;
8439;SDS011;4257;48.568;7.818;2023-08-17T02:46:10;1.20;;;0.55;;
8439;SDS011;4257;48.568;7.818;2023-08-17T02:48:38;0.43;;;0.43;;
8439;SDS011;4257;48.568;7.818;2023-08-17T02:51:04;1.45;;;0.70;;
8439;SDS011;4257;48.568;7.818;2023-08-17T02:53:31;2.28;;;0.93;;
8439;SDS011;4257;48.568;7.818;2023-08-17T02:55:57;1.23;;;0.57;;
8439;SDS011;4257;48.568;7.818;2023-08-17T02:58:24;1.27;;;0.90;;
8439;SDS011;4257;48.568;7.818;2023-08-17T03:00:50;2.22;;;0.60;;
8439;SDS011;4257;48.568;7.818;2023-08-17T03:03:17;1.48;;;1.00;;
8439;SDS011;4257;48.568;7.818;2023-08-17T03:05:45;2.33;;;0.90;;
8439;SDS011;4257;48.568;7.818;2023-08-17T03:08:11;1.00;;;0.65;;
8439;SDS011;4257;48.568;7.818;2023-08-17T03:10:38;0.95;;;0.80;;
8439;SDS011;4257;48.568;7.818;2023-08-17T03:13:04;1.10;;;0.82;;
8439;SDS011;4257;48.568;7.818;2023-08-17T03:15:31;1.65;;;0.93;;
8439;SDS011;4257;48.568;7.818;2023-08-17T03:17:57;1.27;;;0.80;;
8439;SDS011;4257;48.568;7.818;2023-08-17T03:20:24;2.15;;;0.70;;
8439;SDS011;4257;48.568;7.818;2023-08-17T03:22:52;0.95;;;0.60;;
8439;SDS011;4257;48.568;7.818;2023-08-17T03:25:18;1.58;;;1.20;;
8439;SDS011;4257;48.568;7.818;2023-08-17T03:27:45;1.27;;;0.95;;
8439;SDS011;4257;48.568;7.818;2023-08-17T03:30:12;1.58;;;0.88;;
8439;SDS011;4257;48.568;7.818;2023-08-17T03:32:39;2.28;;;1.00;;
8439;SDS011;4257;48.568;7.818;2023-08-17T03:35:06;2.28;;;0.68;;
8439;SDS011;4257;48.568;7.818;2023-08-17T03:37:33;1.45;;;1.00;;
8439;SDS011;4257;48.568;7.818;2023-08-17T03:40:03;1.65;;;0.93;;
8439;SDS011;4257;48.568;7.818;2023-08-17T03:42:30;1.05;;;0.95;;
8439;SDS011;4257;48.568;7.818;2023-08-17T03:44:58;3.00;;;1.08;;
8439;SDS011;4257;48.568;7.818;2023-08-17T03:47:25;3.22;;;1.00;;
8439;SDS011;4257;48.568;7.818;2023-08-17T03:49:51;1.15;;;0.73;;
8439;SDS011;4257;48.568;7.818;2023-08-17T03:52:18;1.63;;;0.80;;
8439;SDS011;4257;48.568;7.818;2023-08-17T03:54:44;1.30;;;1.00;;
8439;SDS011;4257;48.568;7.818;2023-08-17T03:57:12;1.05;;;0.73;;
8439;SDS011;4257;48.568;7.818;2023-08-17T03:59:39;0.90;;;0.70;;
8439;SDS011;4257;48.568;7.818;2023-08-17T04:02:07;1.65;;;0.95;;
8439;SDS011;4257;48.568;7.818;2023-08-17T04:04:33;2.55;;;1.27;;
8439;SDS011;4257;48.568;7.818;2023-08-17T04:07:00;2.47;;;0.85;;
8439;SDS011;4257;48.568;7.818;2023-08-17T04:09:27;1.50;;;1.10;;
8439;SDS011;4257;48.568;7.818;2023-08-17T04:11:53;1.17;;;1.00;;
8439;SDS011;4257;48.568;7.818;2023-08-17T04:14:23;2.10;;;0.90;;
8439;SDS011;4257;48.568;7.818;2023-08-17T04:16:50;1.15;;;1.00;;
8439;SDS011;4257;48.568;7.818;2023-08-17T04:19:16;2.17;;;1.38;;
8439;SDS011;4257;48.568;7.818;2023-08-17T04:21:43;1.92;;;1.15;;
8439;SDS011;4257;48.568;7.818;2023-08-17T04:24:09;2.33;;;1.40;;
8439;SDS011;4257;48.568;7.818;2023-08-17T04:26:36;1.02;;;0.80;;
8439;SDS011;4257;48.568;7.818;2023-08-17T04:29:03;1.25;;;1.02;;
8439;SDS011;4257;48.568;7.818;2023-08-17T04:31:31;1.42;;;1.00;;
8439;SDS011;4257;48.568;7.818;2023-08-17T04:33:58;2.03;;;1.45;;
8439;SDS011;4257;48.568;7.818;2023-08-17T04:36:24;1.05;;;0.77;;
8439;SDS011;4257;48.568;7.818;2023-08-17T04:38:50;2.15;;;0.98;;
8439;SDS011;4257;48.568;7.818;2023-08-17T04:41:18;1.80;;;0.80;;
8439;SDS011;4257;48.568;7.818;2023-08-17T04:43:44;1.45;;;0.77;;
8439;SDS011;4257;48.568;7.818;2023-08-17T04:46:12;4.03;;;1.38;;
8439;SDS011;4257;48.568;7.818;2023-08-17T04:48:40;2.15;;;1.55;;
8439;SDS011;4257;48.568;7.818;2023-08-17T04:51:07;3.15;;;1.65;;
8439;SDS011;4257;48.568;7.818;2023-08-17T04:53:33;1.50;;;0.77;;
8439;SDS011;4257;48.568;7.818;2023-08-17T04:56:00;2.75;;;1.13;;
8439;SDS011;4257;48.568;7.818;2023-08-17T04:58:28;1.75;;;1.17;;
8439;SDS011;4257;48.568;7.818;2023-08-17T05:00:54;3.72;;;1.75;;
8439;SDS011;4257;48.568;7.818;2023-08-17T05:03:21;1.33;;;0.70;;
8439;SDS011;4257;48.568;7.818;2023-08-17T05:05:49;1.33;;;1.00;;
8439;SDS011;4257;48.568;7.818;2023-08-17T05:08:15;2.97;;;1.00;;
8439;SDS011;4257;48.568;7.818;2023-08-17T05:10:42;3.65;;;0.90;;
8439;SDS011;4257;48.568;7.818;2023-08-17T05:13:08;0.98;;;0.57;;
8439;SDS011;4257;48.568;7.818;2023-08-17T05:15:35;4.22;;;1.33;;
8439;SDS011;4257;48.568;7.818;2023-08-17T05:18:01;4.22;;;1.05;;
8439;SDS011;4257;48.568;7.818;2023-08-17T05:20:28;2.92;;;1.10;;
8439;SDS011;4257;48.568;7.818;2023-08-17T05:22:55;1.17;;;0.80;;
8439;SDS011;4257;48.568;7.818;2023-08-17T05:25:22;2.03;;;1.30;;
8439;SDS011;4257;48.568;7.818;2023-08-17T05:27:50;4.18;;;1.95;;
8439;SDS011;4257;48.568;7.818;2023-08-17T05:30:16;2.10;;;1.33;;
8439;SDS011;4257;48.568;7.818;2023-08-17T05:32:43;2.35;;;1.83;;
8439;SDS011;4257;48.568;7.818;2023-08-17T05:35:09;2.15;;;1.02;;
8439;SDS011;4257;48.568;7.818;2023-08-17T05:37:36;1.08;;;0.98;;
8439;SDS011;4257;48.568;7.818;2023-08-17T05:40:04;5.15;;;1.27;;
8439;SDS011;4257;48.568;7.818;2023-08-17T05:42:33;2.70;;;1.23;;
8439;SDS011;4257;48.568;7.818;2023-08-17T05:45:00;1.10;;;0.75;;
8439;SDS011;4257;48.568;7.818;2023-08-17T05:47:26;1.45;;;0.85;;
8439;SDS011;4257;48.568;7.818;2023-08-17T05:49:53;2.10;;;0.73;;
8439;SDS011;4257;48.568;7.818;2023-08-17T05:52:20;2.15;;;0.90;;
8439;SDS011;4257;48.568;7.818;2023-08-17T05:54:46;1.85;;;1.20;;
8439;SDS011;4257;48.568;7.818;2023-08-17T05:57:14;4.90;;;2.92;;
8439;SDS011;4257;48.568;7.818;2023-08-17T05:59:40;4.35;;;1.80;;
8439;SDS011;4257;48.568;7.818;2023-08-17T06:02:07;4.95;;;2.28;;
8439;SDS011;4257;48.568;7.818;2023-08-17T06:04:34;3.30;;;1.88;;
8439;SDS011;4257;48.568;7.818;2023-08-17T06:07:00;6.32;;;1.88;;
8439;SDS011;4257;48.568;7.818;2023-08-17T06:09:27;5.90;;;3.17;;
8439;SDS011;4257;48.568;7.818;2023-08-17T06:11:53;3.88;;;2.15;;
8439;SDS011;4257;48.568;7.818;2023-08-17T06:14:21;3.03;;;2.47;;
8439;SDS011;4257;48.568;7.818;2023-08-17T06:16:48;3.90;;;2.22;;
8439;SDS011;4257;48.568;7.818;2023-08-17T06:19:14;6.25;;;2.55;;
8439;SDS011;4257;48.568;7.818;2023-08-17T06:21:41;5.38;;;1.83;;
8439;SDS011;4257;48.568;7.818;2023-08-17T06:24:07;6.63;;;2.47;;
8439;SDS011;4257;48.568;7.818;2023-08-17T06:26:34;4.18;;;1.70;;
8439;SDS011;4257;48.568;7.818;2023-08-17T06:29:00;4.47;;;2.10;;
8439;SDS011;4257;48.568;7.818;2023-08-17T06:31:28;3.63;;;1.98;;
8439;SDS011;4257;48.568;7.818;2023-08-17T06:33:55;2.95;;;1.98;;
8439;SDS011;4257;48.568;7.818;2023-08-17T06:36:22;4.45;;;1.80;;
8439;SDS011;4257;48.568;7.818;2023-08-17T06:38:48;3.60;;;1.85;;
8439;SDS011;4257;48.568;7.818;2023-08-17T06:41:15;2.50;;;2.13;;
8439;SDS011;4257;48.568;7.818;2023-08-17T06:43:41;4.10;;;1.88;;
8439;SDS011;4257;48.568;7.818;2023-08-17T06:46:08;3.45;;;1.70;;
8439;SDS011;4257;48.568;7.818;2023-08-17T06:48:36;3.53;;;2.00;;
8439;SDS011;4257;48.568;7.818;2023-08-17T06:51:02;2.20;;;1.17;;
8439;SDS011;4257;48.568;7.818;2023-08-17T06:53:30;2.88;;;2.28;;
8439;SDS011;4257;48.568;7.818;2023-08-17T06:55:56;8.45;;;3.13;;
8439;SDS011;4257;48.568;7.818;2023-08-17T06:58:23;5.78;;;2.60;;
8439;SDS011;4257;48.568;7.818;2023-08-17T07:00:50;4.78;;;2.53;;
8439;SDS011;4257;48.568;7.818;2023-08-17T07:03:16;4.88;;;1.75;;
8439;SDS011;4257;48.568;7.818;2023-08-17T07:05:44;6.35;;;2.70;;
8439;SDS011;4257;48.568;7.818;2023-08-17T07:08:10;3.60;;;2.45;;
8439;SDS011;4257;48.568;7.818;2023-08-17T07:10:38;4.70;;;2.85;;
8439;SDS011;4257;48.568;7.818;2023-08-17T07:13:04;3.53;;;1.92;;
8439;SDS011;4257;48.568;7.818;2023-08-17T07:15:32;6.95;;;2.97;;
8439;SDS011;4257;48.568;7.818;2023-08-17T07:17:59;4.10;;;2.40;;
8439;SDS011;4257;48.568;7.818;2023-08-17T07:20:25;5.30;;;3.17;;
8439;SDS011;4257;48.568;7.818;2023-08-17T07:22:53;8.02;;;2.95;;
8439;SDS011;4257;48.568;7.818;2023-08-17T07:25:20;5.72;;;3.28;;
8439;SDS011;4257;48.568;7.818;2023-08-17T07:27:46;5.80;;;2.95;;
8439;SDS011;4257;48.568;7.818;2023-08-17T07:30:13;4.60;;;2.63;;
8439;SDS011;4257;48.568;7.818;2023-08-17T07:32:39;4.07;;;2.13;;
8439;SDS011;4257;48.568;7.818;2023-08-17T07:35:06;4.85;;;2.28;;
8439;SDS011;4257;48.568;7.818;2023-08-17T07:37:33;6.03;;;2.63;;
8439;SDS011;4257;48.568;7.818;2023-08-17T07:40:03;4.55;;;2.50;;
8439;SDS011;4257;48.568;7.818;2023-08-17T07:42:31;3.38;;;1.83;;
8439;SDS011;4257;48.568;7.818;2023-08-17T07:44:57;5.57;;;3.25;;
8439;SDS011;4257;48.568;7.818;2023-08-17T07:47:24;2.83;;;1.95;;
8439;SDS011;4257;48.568;7.818;2023-08-17T07:49:50;5.43;;;2.38;;
8439;SDS011;4257;48.568;7.818;2023-08-17T07:52:17;2.83;;;2.10;;
8439;SDS011;4257;48.568;7.818;2023-08-17T07:54:44;4.20;;;2.03;;
8439;SDS011;4257;48.568;7.818;2023-08-17T07:57:13;2.47;;;2.28;;
8439;SDS011;4257;48.568;7.818;2023-08-17T07:59:39;4.07;;;2.80;;
8439;SDS011;4257;48.568;7.818;2023-08-17T08:02:06;5.95;;;2.30;;
8439;SDS011;4257;48.568;7.818;2023-08-17T08:04:32;4.10;;;2.25;;
8439;SDS011;4257;48.568;7.818;2023-08-17T08:07:00;6.55;;;1.70;;
8439;SDS011;4257;48.568;7.818;2023-08-17T08:09:27;5.78;;;2.25;;
8439;SDS011;4257;48.568;7.818;2023-08-17T08:11:53;5.68;;;3.00;;
8439;SDS011;4257;48.568;7.818;2023-08-17T08:14:21;4.03;;;2.00;;
8439;SDS011;4257;48.568;7.818;2023-08-17T08:16:47;4.80;;;1.98;;
8439;SDS011;4257;48.568;7.818;2023-08-17T08:19:14;3.10;;;1.92;;
8439;SDS011;4257;48.568;7.818;2023-08-17T08:21:40;4.53;;;2.00;;
8439;SDS011;4257;48.568;7.818;2023-08-17T08:24:07;4.22;;;1.67;;
8439;SDS011;4257;48.568;7.818;2023-08-17T08:26:33;3.10;;;2.10;;
8439;SDS011;4257;48.568;7.818;2023-08-17T08:29:00;4.00;;;1.98;;
8439;SDS011;4257;48.568;7.818;2023-08-17T08:31:29;3.20;;;1.75;;
8439;SDS011;4257;48.568;7.818;2023-08-17T08:33:57;4.63;;;2.20;;
8439;SDS011;4257;48.568;7.818;2023-08-17T08:36:24;2.53;;;1.27;;
8439;SDS011;4257;48.568;7.818;2023-08-17T08:38:51;3.67;;;2.00;;
8439;SDS011;4257;48.568;7.818;2023-08-17T08:41:17;4.15;;;2.33;;
8439;SDS011;4257;48.568;7.818;2023-08-17T08:43:44;4.10;;;2.10;;
8439;SDS011;4257;48.568;7.818;2023-08-17T08:46:11;3.20;;;2.10;;
8439;SDS011;4257;48.568;7.818;2023-08-17T08:48:39;4.50;;;2.38;;
8439;SDS011;4257;48.568;7.818;2023-08-17T08:51:07;2.97;;;2.15;;
8439;SDS011;4257;48.568;7.818;2023-08-17T08:53:37;4.45;;;1.67;;
8439;SDS011;4257;48.568;7.818;2023-08-17T08:56:03;4.68;;;1.98;;
8439;SDS011;4257;48.568;7.818;2023-08-17T08:58:31;10.93;;;2.38;;
8439;SDS011;4257;48.568;7.818;2023-08-17T09:00:57;5.38;;;2.22;;
8439;SDS011;4257;48.568;7.818;2023-08-17T09:03:25;3.65;;;1.60;;
8439;SDS011;4257;48.568;7.818;2023-08-17T09:05:53;2.33;;;1.63;;
8439;SDS011;4257;48.568;7.818;2023-08-17T09:08:22;4.22;;;2.13;;
8439;SDS011;4257;48.568;7.818;2023-08-17T09:10:51;4.05;;;1.80;;
8439;SDS011;4257;48.568;7.818;2023-08-17T09:13:17;3.50;;;1.95;;
8439;SDS011;4257;48.568;7.818;2023-08-17T09:15:44;2.67;;;1.90;;
8439;SDS011;4257;48.568;7.818;2023-08-17T09:18:11;6.60;;;2.17;;
8439;SDS011;4257;48.568;7.818;2023-08-17T09:20:38;1.92;;;1.50;;
8439;SDS011;4257;48.568;7.818;2023-08-17T09:23:11;7.38;;;2.35;;
8439;SDS011;4257;48.568;7.818;2023-08-17T09:25:39;3.88;;;2.42;;
8439;SDS011;4257;48.568;7.818;2023-08-17T09:28:06;3.78;;;2.00;;
8439;SDS011;4257;48.568;7.818;2023-08-17T09:30:40;3.90;;;2.30;;
8439;SDS011;4257;48.568;7.818;2023-08-17T09:33:15;4.82;;;2.70;;
8439;SDS011;4257;48.568;7.818;2023-08-17T09:35:41;3.97;;;2.08;;
8439;SDS011;4257;48.568;7.818;2023-08-17T09:38:08;3.90;;;1.58;;
8439;SDS011;4257;48.568;7.818;2023-08-17T09:40:36;3.60;;;2.08;;
8439;SDS011;4257;48.568;7.818;2023-08-17T09:43:02;2.10;;;1.50;;
8439;SDS011;4257;48.568;7.818;2023-08-17T09:45:29;5.65;;;1.92;;
8439;SDS011;4257;48.568;7.818;2023-08-17T09:47:58;3.10;;;1.77;;
8439;SDS011;4257;48.568;7.818;2023-08-17T09:50:24;2.35;;;1.90;;
8439;SDS011;4257;48.568;7.818;2023-08-17T09:52:52;4.70;;;2.13;;
8439;SDS011;4257;48.568;7.818;2023-08-17T09:55:20;6.05;;;2.17;;
8439;SDS011;4257;48.568;7.818;2023-08-17T09:57:50;2.00;;;1.20;;
8439;SDS011;4257;48.568;7.818;2023-08-17T10:00:18;1.80;;;1.70;;
8439;SDS011;4257;48.568;7.818;2023-08-17T10:02:47;1.63;;;1.50;;
8439;SDS011;4257;48.568;7.818;2023-08-17T10:05:17;4.88;;;1.73;;
8439;SDS011;4257;48.568;7.818;2023-08-17T10:07:46;2.03;;;1.58;;
8439;SDS011;4257;48.568;7.818;2023-08-17T10:10:13;2.83;;;1.65;;
8439;SDS011;4257;48.568;7.818;2023-08-17T10:12:44;2.15;;;1.63;;
8439;SDS011;4257;48.568;7.818;2023-08-17T10:15:13;1.77;;;1.42;;
8439;SDS011;4257;48.568;7.818;2023-08-17T10:17:43;2.15;;;1.15;;
8439;SDS011;4257;48.568;7.818;2023-08-17T10:20:10;2.42;;;1.65;;
8439;SDS011;4257;48.568;7.818;2023-08-17T10:22:39;2.13;;;1.55;;
8439;SDS011;4257;48.568;7.818;2023-08-17T10:25:14;2.53;;;1.73;;
8439;SDS011;4257;48.568;7.818;2023-08-17T10:27:41;3.28;;;1.60;;
8439;SDS011;4257;48.568;7.818;2023-08-17T10:30:08;2.42;;;1.30;;
8439;SDS011;4257;48.568;7.818;2023-08-17T10:32:37;3.15;;;1.52;;
8439;SDS011;4257;48.568;7.818;2023-08-17T10:35:04;1.92;;;1.35;;
8439;SDS011;4257;48.568;7.818;2023-08-17T10:37:31;2.70;;;1.75;;
8439;SDS011;4257;48.568;7.818;2023-08-17T10:39:57;2.28;;;1.50;;
8439;SDS011;4257;48.568;7.818;2023-08-17T10:42:30;2.05;;;1.75;;
8439;SDS011;4257;48.568;7.818;2023-08-17T10:44:58;3.35;;;1.88;;
8439;SDS011;4257;48.568;7.818;2023-08-17T10:47:29;10.73;;;2.47;;
8439;SDS011;4257;48.568;7.818;2023-08-17T10:49:58;4.43;;;1.50;;
8439;SDS011;4257;48.568;7.818;2023-08-17T10:52:26;1.40;;;1.30;;
8439;SDS011;4257;48.568;7.818;2023-08-17T10:54:54;2.63;;;1.67;;
8439;SDS011;4257;48.568;7.818;2023-08-17T10:57:24;2.83;;;1.75;;
8439;SDS011;4257;48.568;7.818;2023-08-17T11:02:44;3.88;;;2.13;;
8439;SDS011;4257;48.568;7.818;2023-08-17T11:05:13;3.30;;;1.52;;
8439;SDS011;4257;48.568;7.818;2023-08-17T11:07:42;2.05;;;1.30;;
8439;SDS011;4257;48.568;7.818;2023-08-17T11:10:13;3.30;;;1.40;;
8439;SDS011;4257;48.568;7.818;2023-08-17T11:12:53;1.67;;;1.58;;
8439;SDS011;4257;48.568;7.818;2023-08-17T11:15:22;3.75;;;1.60;;
8439;SDS011;4257;48.568;7.818;2023-08-17T11:17:49;1.70;;;1.27;;
8439;SDS011;4257;48.568;7.818;2023-08-17T11:20:17;3.58;;;1.55;;
8439;SDS011;4257;48.568;7.818;2023-08-17T11:22:44;2.55;;;1.48;;
8439;SDS011;4257;48.568;7.818;2023-08-17T11:25:10;1.30;;;1.13;;
8439;SDS011;4257;48.568;7.818;2023-08-17T11:27:37;1.98;;;1.42;;
8439;SDS011;4257;48.568;7.818;2023-08-17T11:30:05;3.97;;;1.98;;
8439;SDS011;4257;48.568;7.818;2023-08-17T11:32:34;2.10;;;1.90;;
8439;SDS011;4257;48.568;7.818;2023-08-17T11:35:01;3.00;;;2.47;;
8439;SDS011;4257;48.568;7.818;2023-08-17T11:37:29;2.65;;;1.50;;
8439;SDS011;4257;48.568;7.818;2023-08-17T11:39:55;2.58;;;1.52;;
8439;SDS011;4257;48.568;7.818;2023-08-17T11:42:22;2.83;;;1.63;;
8439;SDS011;4257;48.568;7.818;2023-08-17T11:44:48;2.20;;;1.55;;
8439;SDS011;4257;48.568;7.818;2023-08-17T11:47:15;2.05;;;1.40;;
8439;SDS011;4257;48.568;7.818;2023-08-17T11:49:41;2.83;;;1.42;;
8439;SDS011;4257;48.568;7.818;2023-08-17T11:52:08;2.88;;;1.38;;
8439;SDS011;4257;48.568;7.818;2023-08-17T11:54:40;1.88;;;1.65;;
8439;SDS011;4257;48.568;7.818;2023-08-17T11:57:07;3.50;;;1.83;;
8439;SDS011;4257;48.568;7.818;2023-08-17T11:59:33;4.07;;;2.05;;
8439;SDS011;4257;48.568;7.818;2023-08-17T12:02:01;4.05;;;1.90;;
8439;SDS011;4257;48.568;7.818;2023-08-17T12:04:27;2.40;;;1.90;;
8439;SDS011;4257;48.568;7.818;2023-08-17T12:06:54;5.05;;;1.35;;
8439;SDS011;4257;48.568;7.818;2023-08-17T12:09:21;2.17;;;1.67;;
8439;SDS011;4257;48.568;7.818;2023-08-17T12:11:52;2.20;;;1.25;;
8439;SDS011;4257;48.568;7.818;2023-08-17T12:14:25;3.10;;;1.20;;
8439;SDS011;4257;48.568;7.818;2023-08-17T12:16:52;1.92;;;1.10;;
8439;SDS011;4257;48.568;7.818;2023-08-17T12:19:19;3.55;;;2.05;;
8439;SDS011;4257;48.568;7.818;2023-08-17T12:21:45;2.45;;;1.58;;
8439;SDS011;4257;48.568;7.818;2023-08-17T12:24:12;3.10;;;1.55;;
8439;SDS011;4257;48.568;7.818;2023-08-17T12:26:40;1.60;;;1.50;;
8439;SDS011;4257;48.568;7.818;2023-08-17T12:29:08;3.13;;;1.50;;
8439;SDS011;4257;48.568;7.818;2023-08-17T12:31:36;6.68;;;1.90;;
8439;SDS011;4257;48.568;7.818;2023-08-17T12:34:03;2.83;;;1.45;;
8439;SDS011;4257;48.568;7.818;2023-08-17T12:36:30;1.45;;;1.35;;
8439;SDS011;4257;48.568;7.818;2023-08-17T12:38:57;2.58;;;1.50;;
8439;SDS011;4257;48.568;7.818;2023-08-17T12:41:23;1.83;;;1.25;;
8439;SDS011;4257;48.568;7.818;2023-08-17T12:43:50;2.58;;;1.48;;
8439;SDS011;4257;48.568;7.818;2023-08-17T12:46:20;2.17;;;1.40;;
8439;SDS011;4257;48.568;7.818;2023-08-17T12:48:46;1.58;;;1.10;;
8439;SDS011;4257;48.568;7.818;2023-08-17T12:51:13;2.70;;;1.27;;
8439;SDS011;4257;48.568;7.818;2023-08-17T12:53:40;1.30;;;1.20;;
8439;SDS011;4257;48.568;7.818;2023-08-17T12:56:07;4.07;;;1.55;;
8439;SDS011;4257;48.568;7.818;2023-08-17T12:58:33;3.05;;;1.58;;
8439;SDS011;4257;48.568;7.818;2023-08-17T13:01:00;2.05;;;1.60;;
8439;SDS011;4257;48.568;7.818;2023-08-17T13:03:28;2.15;;;1.35;;
8439;SDS011;4257;48.568;7.818;2023-08-17T13:05:54;1.98;;;1.55;;
8439;SDS011;4257;48.568;7.818;2023-08-17T13:08:21;2.17;;;1.60;;
8439;SDS011;4257;48.568;7.818;2023-08-17T13:10:48;2.45;;;1.92;;
8439;SDS011;4257;48.568;7.818;2023-08-17T13:13:14;2.38;;;1.58;;
8439;SDS011;4257;48.568;7.818;2023-08-17T13:15:41;1.85;;;1.65;;
8439;SDS011;4257;48.568;7.818;2023-08-17T13:18:07;1.95;;;1.40;;
8439;SDS011;4257;48.568;7.818;2023-08-17T13:20:35;2.47;;;1.90;;
8439;SDS011;4257;48.568;7.818;2023-08-17T13:23:03;2.47;;;1.63;;
8439;SDS011;4257;48.568;7.818;2023-08-17T13:25:30;3.00;;;1.90;;
8439;SDS011;4257;48.568;7.818;2023-08-17T13:27:56;1.73;;;1.40;;
8439;SDS011;4257;48.568;7.818;2023-08-17T13:30:23;2.03;;;1.35;;
8439;SDS011;4257;48.568;7.818;2023-08-17T13:32:52;1.88;;;1.45;;
8439;SDS011;4257;48.568;7.818;2023-08-17T13:35:18;3.15;;;1.92;;
8439;SDS011;4257;48.568;7.818;2023-08-17T13:37:49;2.15;;;1.60;;
8439;SDS011;4257;48.568;7.818;2023-08-17T13:40:17;2.38;;;1.40;;
8439;SDS011;4257;48.568;7.818;2023-08-17T13:42:44;2.38;;;1.23;;
8439;SDS011;4257;48.568;7.818;2023-08-17T13:45:11;2.03;;;1.33;;
8439;SDS011;4257;48.568;7.818;2023-08-17T13:47:37;2.20;;;1.50;;
8439;SDS011;4257;48.568;7.818;2023-08-17T13:50:04;1.98;;;1.30;;
8439;SDS011;4257;48.568;7.818;2023-08-17T13:52:31;1.45;;;1.27;;
8439;SDS011;4257;48.568;7.818;2023-08-17T13:55:00;2.60;;;2.20;;
8439;SDS011;4257;48.568;7.818;2023-08-17T13:57:27;4.25;;;2.03;;
8439;SDS011;4257;48.568;7.818;2023-08-17T13:59:53;3.85;;;1.75;;
8439;SDS011;4257;48.568;7.818;2023-08-17T14:02:20;2.33;;;1.33;;
8439;SDS011;4257;48.568;7.818;2023-08-17T14:04:47;5.63;;;1.77;;
8439;SDS011;4257;48.568;7.818;2023-08-17T14:07:13;2.80;;;1.33;;
8439;SDS011;4257;48.568;7.818;2023-08-17T14:09:40;3.40;;;1.90;;
8439;SDS011;4257;48.568;7.818;2023-08-17T14:12:08;5.55;;;1.30;;
8439;SDS011;4257;48.568;7.818;2023-08-17T14:14:34;1.60;;;1.30;;
8439;SDS011;4257;48.568;7.818;2023-08-17T14:17:01;2.38;;;1.67;;
8439;SDS011;4257;48.568;7.818;2023-08-17T14:19:28;2.42;;;1.77;;
8439;SDS011;4257;48.568;7.818;2023-08-17T14:21:55;1.83;;;1.55;;
8439;SDS011;4257;48.568;7.818;2023-08-17T14:24:22;1.70;;;1.50;;
8439;SDS011;4257;48.568;7.818;2023-08-17T14:26:48;1.95;;;1.50;;
8439;SDS011;4257;48.568;7.818;2023-08-17T14:29:16;1.75;;;1.65;;
8439;SDS011;4257;48.568;7.818;2023-08-17T14:31:43;2.10;;;1.45;;
8439;SDS011;4257;48.568;7.818;2023-08-17T14:34:09;1.50;;;1.38;;
8439;SDS011;4257;48.568;7.818;2023-08-17T14:36:35;2.55;;;2.03;;
8439;SDS011;4257;48.568;7.818;2023-08-17T14:39:02;2.13;;;1.38;;
8439;SDS011;4257;48.568;7.818;2023-08-17T14:41:29;3.83;;;1.88;;
8439;SDS011;4257;48.568;7.818;2023-08-17T14:43:57;2.00;;;1.67;;
8439;SDS011;4257;48.568;7.818;2023-08-17T14:46:25;4.97;;;2.25;;
8439;SDS011;4257;48.568;7.818;2023-08-17T14:48:52;2.58;;;1.70;;
8439;SDS011;4257;48.568;7.818;2023-08-17T14:51:19;3.97;;;1.67;;
8439;SDS011;4257;48.568;7.818;2023-08-17T14:53:45;2.53;;;2.08;;
8439;SDS011;4257;48.568;7.818;2023-08-17T14:56:11;2.80;;;1.95;;
8439;SDS011;4257;48.568;7.818;2023-08-17T14:58:38;1.80;;;1.17;;
8439;SDS011;4257;48.568;7.818;2023-08-17T15:01:04;1.60;;;1.40;;
8439;SDS011;4257;48.568;7.818;2023-08-17T15:03:32;1.90;;;1.42;;
8439;SDS011;4257;48.568;7.818;2023-08-17T15:05:59;4.20;;;1.75;;
8439;SDS011;4257;48.568;7.818;2023-08-17T15:08:25;6.50;;;1.45;;
8439;SDS011;4257;48.568;7.818;2023-08-17T15:10:52;3.00;;;1.85;;
8439;SDS011;4257;48.568;7.818;2023-08-17T15:13:18;2.70;;;1.80;;
8439;SDS011;4257;48.568;7.818;2023-08-17T15:15:47;2.20;;;1.88;;
8439;SDS011;4257;48.568;7.818;2023-08-17T15:18:14;3.92;;;1.60;;